地図

経路データ

SID SEASON NUMBER BASIN SUBBASIN NAME ISO_TIME NATURE LAT LON WMO_WIND WMO_PRES WMO_AGENCY TRACK_TYPE DIST2LAND LANDFALL IFLAG USA_AGENCY USA_ATCF_ID USA_LAT USA_LON USA_RECORD USA_STATUS USA_WIND USA_PRES USA_SSHS USA_R34_NE USA_R34_SE USA_R34_SW USA_R34_NW USA_R50_NE USA_R50_SE USA_R50_SW USA_R50_NW USA_R64_NE USA_R64_SE USA_R64_SW USA_R64_NW USA_POCI USA_ROCI USA_RMW USA_EYE TOKYO_LAT TOKYO_LON TOKYO_GRADE TOKYO_WIND TOKYO_PRES TOKYO_R50_DIR TOKYO_R50_LONG TOKYO_R50_SHORT TOKYO_R30_DIR TOKYO_R30_LONG TOKYO_R30_SHORT TOKYO_LAND CMA_LAT CMA_LON CMA_CAT CMA_WIND CMA_PRES HKO_LAT HKO_LON HKO_CAT HKO_WIND HKO_PRES NEWDELHI_LAT NEWDELHI_LON NEWDELHI_GRADE NEWDELHI_WIND NEWDELHI_PRES NEWDELHI_CI NEWDELHI_DP NEWDELHI_POCI REUNION_LAT REUNION_LON REUNION_TYPE REUNION_WIND REUNION_PRES REUNION_TNUM REUNION_CI REUNION_RMW REUNION_R34_NE REUNION_R34_SE REUNION_R34_SW REUNION_R34_NW REUNION_R50_NE REUNION_R50_SE REUNION_R50_SW REUNION_R50_NW REUNION_R64_NE REUNION_R64_SE REUNION_R64_SW REUNION_R64_NW BOM_LAT BOM_LON BOM_TYPE BOM_WIND BOM_PRES BOM_TNUM BOM_CI BOM_RMW BOM_R34_NE BOM_R34_SE BOM_R34_SW BOM_R34_NW BOM_R50_NE BOM_R50_SE BOM_R50_SW BOM_R50_NW BOM_R64_NE BOM_R64_SE BOM_R64_SW BOM_R64_NW BOM_ROCI BOM_POCI BOM_EYE BOM_POS_METHOD BOM_PRES_METHOD NADI_LAT NADI_LON NADI_CAT NADI_WIND NADI_PRES WELLINGTON_LAT WELLINGTON_LON WELLINGTON_WIND WELLINGTON_PRES DS824_LAT DS824_LON DS824_STAGE DS824_WIND DS824_PRES TD9636_LAT TD9636_LON TD9636_STAGE TD9636_WIND TD9636_PRES TD9635_LAT TD9635_LON TD9635_WIND TD9635_PRES TD9635_ROCI NEUMANN_LAT NEUMANN_LON NEUMANN_CLASS NEUMANN_WIND NEUMANN_PRES MLC_LAT MLC_LON MLC_CLASS MLC_WIND MLC_PRES USA_GUST BOM_GUST BOM_GUST_PER REUNION_GUST REUNION_GUST_PER USA_SEAHGT USA_SEARAD_NE USA_SEARAD_SE USA_SEARAD_SW USA_SEARAD_NW STORM_SPEED STORM_DIR
1927040S19057 1927 6 SI MM NOT_NAMED 1927-02-08 12:00:00 NR -18.7000 57.1000 main 162 162 __________O___ -1 -18.7000 57.1000 7 2 270
1927040S19057 1927 6 SI MM NOT_NAMED 1927-02-08 15:00:00 NR -18.6998 56.9907 main 165 165 __________P___ -1 -18.6998 56.9907 7 2 270
1927040S19057 1927 6 SI MM NOT_NAMED 1927-02-08 18:00:00 NR -18.6996 56.8552 main 168 168 __________P___ -1 -18.6996 56.8552 7 3 270
1927040S19057 1927 6 SI MM NOT_NAMED 1927-02-08 21:00:00 NR -18.6997 56.6671 main 177 177 __________P___ -1 -18.6997 56.6671 7 4 270
1927040S19057 1927 6 SI MM NOT_NAMED 1927-02-09 00:00:00 TS -18.7000 56.4000 main 194 194 _________OO___ -1 -18.7000 56.4000 TC 25 -18.7000 56.4000 7 6 270
1927040S19057 1927 6 SI MM NOT_NAMED 1927-02-09 03:00:00 TS -18.6996 56.0071 main 221 221 _________PP___ -1 -18.6952 55.9475 TC 25 -18.7018 56.0369 7 8 269
1927040S19057 1927 6 SI MM NOT_NAMED 1927-02-09 06:00:00 TS -18.7073 55.5554 main 253 253 _________OP___ -1 -18.7000 55.5000 TC 25 -18.7128 55.5970 7 9 268
1927040S19057 1927 6 SI MM NOT_NAMED 1927-02-09 09:00:00 TS -18.7348 55.0830 main 258 249 _________PP___ -1 -18.7273 55.0574 TC 25 -18.7423 55.1086 7 9 264
1927040S19057 1927 6 SI MM NOT_NAMED 1927-02-09 12:00:00 TS -18.8000 54.6000 main 256 253 _________OO___ -1 -18.8000 54.6000 TC 25 -18.8000 54.6000 7 10 258
1927040S19057 1927 6 SI MM NOT_NAMED 1927-02-09 15:00:00 TS -18.9296 54.1012 main 266 261 _________PP___ -1 -18.9424 54.1076 TC 25 -18.9167 54.0948 7 10 254
1927040S19057 1927 6 SI MM NOT_NAMED 1927-02-09 18:00:00 TS -19.0789 53.5893 main 276 276 _________OP___ -1 -19.1000 53.6000 TC 25 -19.0577 53.5785 7 10 254
1927040S19057 1927 6 SI MM NOT_NAMED 1927-02-09 21:00:00 TS -19.2087 53.0752 main 305 305 _________PP___ -1 -19.2225 53.0775 TC 25 -19.1949 53.0729 7 10 257
1927040S19057 1927 6 SI MM NOT_NAMED 1927-02-10 00:00:00 TS -19.3000 52.6000 main 337 319 _________OO___ -1 -19.3000 52.6000 TC 25 -19.3000 52.6000 7 8 262
1927040S19057 1927 6 SI MM NOT_NAMED 1927-02-10 03:00:00 TS -19.3291 52.2098 main 319 290 _________PP___ -1 -19.3147 52.2349 TC 25 -19.3435 52.1846 7 7 268
1927040S19057 1927 6 SI MM NOT_NAMED 1927-02-10 06:00:00 TS -19.3259 51.8523 main 290 250 _________OP___ -1 -19.3000 51.9000 TC 25 -19.3518 51.8046 7 7 271
1927040S19057 1927 6 SI MM NOT_NAMED 1927-02-10 09:00:00 TS -19.3209 51.4737 main 250 210 _________PP___ -1 -19.3075 51.5000 TC 25 -19.3342 51.4473 7 7 272
1927040S19057 1927 6 SI MM NOT_NAMED 1927-02-10 12:00:00 TS -19.3000 51.1000 main 210 181 _________OO___ -1 -19.3000 51.1000 TC 25 -19.3000 51.1000 7 7 274
1927040S19057 1927 6 SI MM NOT_NAMED 1927-02-10 15:00:00 TS -19.2727 50.7550 main 181 138 _________PP___ -1 -19.2574 50.7425 TC 25 -19.2881 50.7676 7 6 276
1927040S19057 1927 6 SI MM NOT_NAMED 1927-02-10 18:00:00 TS -19.2295 50.4191 main 138 107 _________OP___ -1 -19.2000 50.4000 TC 25 -19.2590 50.4382 7 6 278
1927040S19057 1927 6 SI MM NOT_NAMED 1927-02-10 21:00:00 TS -19.1864 50.0812 main 107 64 _________PP___ -1 -19.1723 50.0727 TC 25 -19.2005 50.0896 7 7 281
1927040S19057 1927 6 SI MM NOT_NAMED 1927-02-11 00:00:00 TS -19.1000 49.7000 main 64 21 _________OO___ -1 -19.1000 49.7000 TC 25 -19.1000 49.7000 7 8 287
1927040S19057 1927 6 SI MM NOT_NAMED 1927-02-11 03:00:00 TS -18.9350 49.2285 main 10 0 _________PP___ -1 -18.9225 49.2224 TC 25 -18.9474 49.2346 7 10 292
1927040S19057 1927 6 SI MM NOT_NAMED 1927-02-11 06:00:00 TS -18.7264 48.7147 main 0 0 _________OP___ -1 -18.7000 48.7000 TC 25 -18.7528 48.7295 7 11 293
1927040S19057 1927 6 SI MM NOT_NAMED 1927-02-11 09:00:00 TS -18.5158 48.2011 main 0 0 _________PP___ -1 -18.4999 48.1926 TC 25 -18.5317 48.2097 7 11 294
1927040S19057 1927 6 SI MM NOT_NAMED 1927-02-11 12:00:00 TS -18.3000 47.7000 main 0 0 _________OO___ -1 -18.3000 47.7000 TC 25 -18.3000 47.7000 7 10 295
1927040S19057 1927 6 SI MM NOT_NAMED 1927-02-11 15:00:00 TS -18.0863 47.2453 main 0 0 _________PP___ -1 -18.1073 47.2427 TC 25 -18.0653 47.2480 7 10 297
1927040S19057 1927 6 SI MM NOT_NAMED 1927-02-11 18:00:00 TS -17.8633 46.8038 main 0 0 _________OP___ -1 -17.9000 46.8000 TC 25 -17.8266 46.8076 7 10 299
1927040S19057 1927 6 SI MM NOT_NAMED 1927-02-11 21:00:00 TS -17.6247 46.3605 main 0 0 _________PP___ -1 -17.6498 46.3575 TC 25 -17.5996 46.3635 7 10 298
1927040S19057 1927 6 SI MM NOT_NAMED 1927-02-12 00:00:00 TS -17.4000 45.9000 main 0 0 _________OO___ -1 -17.4000 45.9000 TC 25 -17.4000 45.9000 7 10 296
1927040S19057 1927 6 SI MM NOT_NAMED 1927-02-12 03:00:00 TS -17.1778 45.3913 main 0 0 _________PP___ -1 -17.1699 45.4150 TC 25 -17.1856 45.3676 7 11 292
1927040S19057 1927 6 SI MM NOT_NAMED 1927-02-12 06:00:00 TS -17.0040 44.8595 main 0 0 _________OP___ -1 -17.0000 44.9000 TC 25 -17.0080 44.8190 7 11 285
1927040S19057 1927 6 SI MM NOT_NAMED 1927-02-12 09:00:00 TS -16.8994 44.3143 main 0 0 _________PP___ -1 -16.8975 44.3425 TC 25 -16.9013 44.2861 7 10 276
1927040S19057 1927 6 SI MM NOT_NAMED 1927-02-12 12:00:00 TS -16.9000 43.8000 main 46 46 _________OO___ -1 -16.9000 43.8000 TC 25 -16.9000 43.8000 7 10 263
1927040S19057 1927 6 SI MM NOT_NAMED 1927-02-12 15:00:00 TS -17.0078 43.3266 main 84 84 _________PP___ -1 -16.9900 43.3051 TC 25 -17.0257 43.3482 7 9 249
1927040S19057 1927 6 SI MM NOT_NAMED 1927-02-12 18:00:00 TS -17.2286 42.9259 main 111 108 _________OP___ -1 -17.2000 42.9000 TC 25 -17.2573 42.9517 7 9 232
1927040S19057 1927 6 SI MM NOT_NAMED 1927-02-12 21:00:00 TS -17.5401 42.6097 main 137 137 _________PP___ -1 -17.5199 42.5901 TC 25 -17.5602 42.6293 7 8 217
1927040S19057 1927 6 SI MM NOT_NAMED 1927-02-13 00:00:00 TS -17.9000 42.4000 main 165 165 _________OO___ -1 -17.9000 42.4000 TC 25 -17.9000 42.4000 7 8 203
1927040S19057 1927 6 SI MM NOT_NAMED 1927-02-13 03:00:00 TS -18.2293 42.2946 main 179 179 _________PP___ -1 -18.2499 42.3124 TC 25 -18.2087 42.2769 7 7 190
1927040S19057 1927 6 SI MM NOT_NAMED 1927-02-13 06:00:00 TS -18.5735 42.2721 main 180 180 _________OP___ -1 -18.6000 42.3000 TC 25 -18.5471 42.2442 7 7 181
1927040S19057 1927 6 SI MM NOT_NAMED 1927-02-13 09:00:00 TS -18.9235 42.2785 main 187 187 _________PP___ -1 -18.9350 42.2925 TC 25 -18.9120 42.2645 7 7 0
1927040S19057 1927 6 SI MM NOT_NAMED 1927-02-13 12:00:00 TS -19.3000 42.3000 main 200 200 _________OO___ -1 -19.3000 42.3000 TC 25 -19.3000 42.3000 7 8 179
1927040S19057 1927 6 SI MM NOT_NAMED 1927-02-13 15:00:00 TS -19.7088 42.2865 main 207 184 _________PP___ -1 -19.7425 42.3000 TC 25 -19.6750 42.2729 7 8 0
1927040S19057 1927 6 SI MM NOT_NAMED 1927-02-13 18:00:00 TS -20.1375 42.2779 main 184 160 _________OP___ -1 -20.2000 42.3000 TC 25 -20.0750 42.2558 7 8 181
1927040S19057 1927 6 SI MM NOT_NAMED 1927-02-13 21:00:00 TS -20.5450 42.2729 main 160 132 _________PP___ -1 -20.5775 42.2852 TC 25 -20.5125 42.2607 7 9 0
1927040S19057 1927 6 SI MM NOT_NAMED 1927-02-14 00:00:00 TS -21.0000 42.3000 main 132 108 _________OO___ -1 -21.0000 42.3000 TC 25 -21.0000 42.3000 7 10 175
1927040S19057 1927 6 SI MM NOT_NAMED 1927-02-14 03:00:00 TS -21.5577 42.3800 main 103 72 _________PP___ -1 -21.5700 42.3775 TC 25 -21.5454 42.3824 7 12 171
1927040S19057 1927 6 SI MM NOT_NAMED 1927-02-14 06:00:00 TS -22.1688 42.5004 main 72 62 _________OP___ -1 -22.2000 42.5000 TC 25 -22.1377 42.5008 7 13 169
1927040S19057 1927 6 SI MM NOT_NAMED 1927-02-14 09:00:00 TS -22.7856 42.6443 main 79 70 _________PP___ -1 -22.8100 42.6448 TC 25 -22.7611 42.6438 7 13 167
1927040S19057 1927 6 SI MM NOT_NAMED 1927-02-14 12:00:00 TS -23.4000 42.8000 main 82 _________OO___ -1 -23.4000 42.8000 TC 25 -23.4000 42.8000 7 13 167

IBTrACS Databaseについて

本データベースは、米国NOAAが公開する1842年以降の世界の熱帯低気圧のベストトラックデータアーカイブInternational Best Track Archive for Climate Stewardship (IBTrACS)を、ウェブで閲覧しやすい形式に変換したものです。

最終更新日:2021-12-03